createdAt,value
2022-09-26T00:01:22.123Z,16.53
2022-09-26T00:03:51.295Z,16.67
2022-09-26T00:06:20.669Z,16.90
2022-09-26T00:08:47.849Z,16.90
2022-09-26T00:11:17.149Z,16.97
2022-09-26T00:13:46.175Z,15.60
2022-09-26T00:16:13.075Z,16.63
2022-09-26T00:18:40.043Z,16.63
2022-09-26T00:21:14.001Z,16.57
2022-09-26T00:23:43.452Z,16.37
2022-09-26T00:26:10.528Z,16.23
2022-09-26T00:28:37.331Z,17.00
2022-09-26T00:31:12.094Z,15.63
2022-09-26T00:33:43.851Z,16.30
2022-09-26T00:36:10.786Z,17.20
2022-09-26T00:38:37.597Z,16.13
2022-09-26T00:41:04.575Z,16.40
2022-09-26T00:43:51.977Z,17.13
2022-09-26T00:46:44.362Z,15.60
2022-09-26T00:49:25.521Z,16.73
2022-09-26T00:52:14.271Z,16.20
2022-09-26T00:54:42.209Z,15.80
2022-09-26T00:57:12.316Z,16.37
2022-09-26T00:59:42.019Z,15.90
2022-09-26T01:02:10.911Z,16.73
2022-09-26T01:04:38.410Z,16.57
2022-09-26T01:07:07.584Z,17.03
2022-09-26T01:09:34.312Z,16.90
2022-09-26T01:12:01.390Z,16.60
2022-09-26T01:14:28.291Z,17.43
2022-09-26T01:17:02.182Z,17.17
2022-09-26T01:19:50.529Z,16.40
2022-09-26T01:22:54.908Z,16.63
2022-09-26T01:26:19.408Z,16.80
2022-09-26T01:29:10.530Z,16.97
2022-09-26T01:32:28.574Z,17.63
2022-09-26T01:35:32.072Z,17.80
2022-09-26T01:38:11.630Z,17.33
2022-09-26T01:41:22.891Z,17.10
2022-09-26T01:43:59.277Z,17.27
2022-09-26T01:46:32.402Z,17.73
2022-09-26T01:49:10.863Z,18.03
2022-09-26T01:51:40.002Z,16.67
2022-09-26T01:54:10.137Z,18.37
2022-09-26T01:56:41.035Z,16.90
2022-09-26T01:59:17.064Z,17.07
2022-09-26T02:01:43.891Z,17.63
2022-09-26T02:04:32.831Z,17.20
2022-09-26T02:07:13.957Z,17.43
2022-09-26T02:09:50.867Z,17.00
2022-09-26T02:12:32.865Z,17.83
2022-09-26T02:15:01.403Z,16.93
2022-09-26T02:17:31.275Z,17.97
2022-09-26T02:20:22.034Z,17.37
2022-09-26T02:22:48.757Z,17.40
2022-09-26T02:25:17.933Z,16.93
2022-09-26T02:27:44.681Z,17.23
2022-09-26T02:30:13.954Z,17.30
2022-09-26T02:32:40.647Z,17.13
2022-09-26T02:35:26.282Z,17.87
2022-09-26T02:37:52.964Z,16.70
2022-09-26T02:40:23.217Z,18.03
2022-09-26T02:43:18.878Z,17.73
2022-09-26T02:46:13.205Z,17.83
2022-09-26T02:49:06.816Z,17.60
2022-09-26T02:51:42.529Z,16.83
2022-09-26T02:54:22.965Z,17.70
2022-09-26T02:56:49.641Z,16.90
2022-09-26T02:59:23.597Z,17.87
2022-09-26T03:01:50.305Z,17.57
2022-09-26T03:04:43.978Z,18.13
2022-09-26T03:07:14.057Z,17.37
2022-09-26T03:09:40.824Z,17.40
2022-09-26T03:12:10.475Z,18.10
2022-09-26T03:14:38.176Z,17.03
2022-09-26T03:17:06.942Z,16.53
2022-09-26T03:19:53.374Z,18.23
2022-09-26T03:22:20.078Z,17.00
2022-09-26T03:24:46.834Z,17.73
2022-09-26T03:27:16.078Z,18.07
2022-09-26T03:29:44.933Z,17.23
2022-09-26T03:32:11.749Z,17.73
2022-09-26T03:34:39.938Z,18.40
2022-09-26T03:37:06.859Z,19.03
2022-09-26T03:39:33.552Z,18.13
2022-09-26T03:42:00.328Z,19.00
2022-09-26T03:44:27.034Z,17.47
2022-09-26T03:46:56.568Z,18.30
2022-09-26T03:49:23.271Z,17.90
2022-09-26T03:51:50.092Z,18.07
2022-09-26T03:54:16.808Z,17.83
2022-09-26T03:56:43.498Z,18.27
2022-09-26T03:59:10.184Z,19.00
2022-09-26T04:01:36.869Z,17.97
2022-09-26T04:04:03.624Z,18.03
2022-09-26T04:06:32.947Z,22.10
2022-09-26T04:08:59.693Z,33.77
2022-09-26T04:11:30.859Z,23.40
2022-09-26T04:13:57.593Z,18.60
2022-09-26T04:16:24.652Z,18.20
2022-09-26T04:18:56.695Z,17.43
2022-09-26T04:21:31.189Z,18.03
2022-09-26T04:23:58.126Z,17.27
2022-09-26T04:26:27.174Z,17.43
2022-09-26T04:28:55.776Z,18.53
2022-09-26T04:31:23.524Z,18.90
2022-09-26T04:33:50.656Z,18.47
2022-09-26T04:36:17.567Z,17.20
2022-09-26T04:38:46.880Z,18.70
2022-09-26T04:41:17.715Z,18.37
2022-09-26T04:43:46.607Z,18.43
2022-09-26T04:46:25.862Z,18.73
2022-09-26T04:48:57.396Z,17.67
2022-09-26T04:51:25.216Z,17.67
2022-09-26T04:53:54.487Z,18.17
2022-09-26T04:56:22.010Z,17.23
2022-09-26T04:58:48.748Z,17.70
2022-09-26T05:01:17.163Z,17.10
2022-09-26T05:03:44.299Z,16.93
2022-09-26T05:06:11.627Z,17.83
2022-09-26T05:08:39.582Z,17.27
2022-09-26T05:11:09.189Z,17.57
2022-09-26T05:13:37.252Z,16.93
2022-09-26T05:16:04.067Z,18.13
2022-09-26T05:18:33.885Z,17.93
2022-09-26T05:21:02.309Z,16.97
2022-09-26T05:23:47.487Z,17.67
2022-09-26T05:26:36.514Z,18.03
2022-09-26T05:29:08.388Z,18.53
2022-09-26T05:31:37.933Z,19.40
2022-09-26T05:34:13.102Z,18.90
2022-09-26T05:36:43.101Z,18.23
2022-09-26T05:39:30.879Z,19.20
2022-09-26T05:41:58.199Z,18.00
2022-09-26T05:44:24.988Z,18.63
2022-09-26T05:46:51.954Z,18.87
2022-09-26T05:49:18.770Z,18.23
2022-09-26T05:51:46.608Z,17.90
2022-09-26T05:54:13.621Z,17.70
2022-09-26T05:56:40.364Z,18.03
2022-09-26T05:59:07.158Z,18.03
2022-09-26T06:01:34.097Z,18.73
2022-09-26T06:04:03.394Z,17.93
2022-09-26T06:06:30.456Z,17.53
2022-09-26T06:08:57.173Z,18.63
2022-09-26T06:11:30.673Z,17.50
2022-09-26T06:14:00.588Z,17.63
2022-09-26T06:16:28.027Z,18.57
2022-09-26T06:18:55.918Z,18.10
2022-09-26T06:21:23.232Z,18.50
2022-09-26T06:23:49.958Z,19.03
2022-09-26T06:26:20.137Z,18.37
2022-09-26T06:28:47.303Z,18.57
2022-09-26T06:31:16.845Z,19.70
2022-09-26T06:33:48.722Z,21.83
2022-09-26T06:36:15.476Z,21.70
2022-09-26T06:38:42.488Z,21.07
2022-09-26T06:41:09.170Z,21.87
2022-09-26T06:43:39.753Z,21.37
2022-09-26T06:46:09.537Z,21.03
2022-09-26T06:48:36.450Z,22.63
2022-09-26T06:51:03.153Z,21.07
2022-09-26T06:53:29.972Z,20.77
2022-09-26T06:55:58.500Z,21.27
2022-09-26T06:58:25.499Z,23.03
2022-09-26T07:00:52.286Z,20.93
2022-09-26T07:03:25.338Z,21.43
2022-09-26T07:05:55.546Z,21.33
2022-09-26T07:08:37.390Z,21.27
2022-09-26T07:11:31.236Z,22.33
2022-09-26T07:14:02.108Z,21.33
2022-09-26T07:16:29.306Z,21.43
2022-09-26T07:18:56.286Z,22.57
2022-09-26T07:21:23.145Z,22.60
2022-09-26T07:23:49.846Z,24.03
2022-09-26T07:26:19.598Z,25.17
2022-09-26T07:28:49.665Z,24.93
2022-09-26T07:31:23.631Z,25.57
2022-09-26T07:33:50.559Z,24.90
2022-09-26T07:36:18.600Z,25.67
2022-09-26T07:38:48.617Z,25.07
2022-09-26T07:41:15.980Z,25.10
2022-09-26T07:44:40.889Z,27.07
2022-09-26T07:46:48.374Z,25.47
2022-09-26T07:49:33.763Z,26.53
2022-09-26T07:52:00.882Z,27.73
2022-09-26T07:54:27.666Z,26.10
2022-09-26T07:56:56.601Z,28.03
2022-09-26T07:59:23.336Z,27.23
2022-09-26T08:01:52.336Z,27.87
2022-09-26T08:04:23.622Z,27.40
2022-09-26T08:06:50.336Z,28.07
2022-09-26T08:09:19.357Z,26.13
2022-09-26T08:11:46.144Z,26.40
2022-09-26T08:14:15.384Z,26.77
2022-09-26T08:16:42.230Z,26.40
2022-09-26T08:19:10.754Z,26.23
2022-09-26T08:21:37.959Z,27.77
2022-09-26T08:24:04.693Z,25.20
2022-09-26T08:26:33.776Z,25.00
2022-09-26T08:29:02.645Z,26.93
2022-09-26T08:31:29.395Z,28.40
2022-09-26T08:33:56.232Z,27.53
2022-09-26T08:36:23.053Z,25.47
2022-09-26T08:38:50.312Z,24.43
2022-09-26T08:41:17.291Z,25.07
2022-09-26T08:43:46.998Z,24.83
2022-09-26T08:46:47.763Z,26.80
2022-09-26T08:49:39.824Z,25.23
2022-09-26T08:52:18.500Z,26.63
2022-09-26T08:54:45.447Z,27.17
2022-09-26T08:57:44.914Z,26.73
2022-09-26T09:00:22.712Z,26.17
2022-09-26T09:02:52.223Z,28.03
2022-09-26T09:05:27.357Z,25.07
2022-09-26T09:07:57.195Z,27.07
2022-09-26T09:10:39.306Z,25.87
2022-09-26T09:13:28.435Z,24.90
2022-09-26T09:16:29.332Z,25.43
2022-09-26T09:19:14.506Z,24.63
2022-09-26T09:21:53.501Z,24.10
2022-09-26T09:24:23.344Z,23.20
2022-09-26T09:30:15.756Z,24.33
2022-09-26T09:32:51.941Z,24.53
2022-09-26T09:35:28.677Z,23.03
2022-09-26T09:37:55.393Z,24.10
2022-09-26T09:40:24.754Z,23.20
2022-09-26T09:42:55.786Z,22.20
2022-09-26T09:45:25.077Z,21.70
2022-09-26T09:47:51.798Z,21.33
2022-09-26T09:50:44.549Z,21.17
2022-09-26T09:53:19.715Z,20.33
2022-09-26T09:55:55.599Z,19.63
2022-09-26T09:58:42.376Z,21.70
2022-09-26T10:01:19.933Z,21.67
2022-09-26T10:04:04.734Z,21.87
2022-09-26T10:06:45.294Z,21.27
2022-09-26T10:09:35.632Z,22.00
2022-09-26T10:12:17.274Z,20.33
2022-09-26T10:15:02.373Z,19.13
2022-09-26T10:17:31.322Z,20.10
2022-09-26T10:19:58.077Z,20.30
2022-09-26T10:22:37.921Z,20.60
2022-09-26T10:25:24.148Z,18.30
2022-09-26T10:27:55.336Z,18.40
2022-09-26T10:30:26.930Z,16.73
2022-09-26T10:33:00.770Z,16.10
2022-09-26T10:35:46.398Z,14.63
2022-09-26T10:38:18.876Z,13.63
2022-09-26T10:40:55.286Z,12.20
2022-09-26T10:43:32.258Z,12.60
2022-09-26T10:46:16.129Z,12.67
2022-09-26T10:48:48.168Z,11.77
2022-09-26T10:51:37.796Z,10.33
2022-09-26T10:54:22.236Z,9.93
2022-09-26T10:56:50.912Z,10.33
2022-09-26T10:59:18.336Z,10.63
2022-09-26T11:01:48.260Z,9.20
2022-09-26T11:04:38.314Z,9.77
2022-09-26T11:07:08.794Z,10.00
2022-09-26T11:09:38.511Z,10.67
2022-09-26T11:12:28.015Z,9.37
2022-09-26T11:15:05.621Z,9.57
2022-09-26T11:17:47.392Z,9.20
2022-09-26T11:20:40.615Z,10.20
2022-09-26T11:23:52.254Z,10.93
2022-09-26T11:26:43.627Z,9.27
2022-09-26T11:29:24.972Z,8.60
2022-09-26T11:31:58.228Z,8.33
2022-09-26T11:34:29.235Z,8.27
2022-09-26T11:37:19.046Z,8.33
2022-09-26T11:40:10.079Z,7.50
2022-09-26T11:42:54.990Z,8.35
2022-09-26T11:46:02.941Z,7.53
2022-09-26T11:48:54.595Z,8.23
2022-09-26T11:51:47.087Z,8.63
2022-09-26T11:54:50.955Z,8.80
2022-09-26T11:57:43.983Z,7.68
2022-09-26T12:00:27.820Z,7.95
2022-09-26T12:03:07.551Z,7.82
2022-09-26T12:05:49.515Z,7.80
2022-09-26T12:08:36.733Z,7.40
2022-09-26T12:11:20.007Z,8.43
2022-09-26T12:14:17.891Z,9.30
2022-09-26T12:16:55.975Z,8.55
2022-09-26T12:20:06.610Z,8.40
2022-09-26T12:22:36.308Z,9.20
2022-09-26T12:25:27.516Z,8.77
2022-09-26T12:28:08.563Z,9.30
2022-09-26T12:30:40.544Z,9.93
2022-09-26T12:33:15.664Z,8.77
2022-09-26T12:35:53.877Z,9.23
2022-09-26T12:38:56.518Z,10.00
2022-09-26T12:41:56.707Z,9.43
2022-09-26T12:44:51.204Z,9.67
2022-09-26T12:47:39.421Z,9.27
2022-09-26T12:50:31.084Z,10.47
2022-09-26T12:53:04.369Z,9.97
2022-09-26T12:55:51.500Z,10.33
2022-09-26T12:58:36.282Z,9.60
2022-09-26T13:01:34.146Z,10.00
2022-09-26T13:04:33.228Z,9.07
2022-09-26T13:07:21.112Z,8.10
2022-09-26T13:10:00.038Z,8.10
2022-09-26T13:12:42.555Z,8.00
2022-09-26T13:15:27.047Z,7.00
2022-09-26T13:17:59.202Z,7.63
2022-09-26T13:20:30.979Z,7.73
2022-09-26T13:23:27.376Z,7.37
2022-09-26T13:26:02.613Z,7.30
2022-09-26T13:28:34.190Z,7.00
2022-09-26T13:31:09.776Z,7.33
2022-09-26T13:33:40.775Z,7.50
2022-09-26T13:36:10.023Z,7.17
2022-09-26T13:38:43.294Z,7.37
2022-09-26T13:41:26.718Z,8.17
2022-09-26T13:44:12.345Z,7.10
2022-09-26T13:47:05.977Z,6.70
2022-09-26T13:49:44.723Z,6.17
2022-09-26T13:52:36.133Z,6.40
2022-09-26T13:55:14.833Z,7.57
2022-09-26T13:58:09.266Z,7.63
2022-09-26T14:00:40.515Z,6.87
2022-09-26T14:03:10.254Z,6.50
2022-09-26T14:05:46.709Z,7.97
2022-09-26T14:08:44.754Z,6.27
2022-09-26T14:11:30.603Z,6.10
2022-09-26T14:14:21.547Z,5.83
2022-09-26T14:16:49.403Z,6.27
2022-09-26T14:19:16.524Z,6.83
2022-09-26T14:22:05.402Z,6.50
2022-09-26T14:24:39.449Z,6.50
2022-09-26T14:27:12.414Z,6.87
2022-09-26T14:29:39.088Z,7.47
2022-09-26T14:32:11.015Z,6.83
2022-09-26T14:34:43.981Z,7.57
2022-09-26T14:37:25.701Z,7.27
2022-09-26T14:39:52.415Z,7.47
2022-09-26T14:42:24.122Z,7.70
2022-09-26T14:44:59.475Z,6.90
2022-09-26T14:47:27.524Z,7.17
2022-09-26T14:50:05.631Z,7.57
2022-09-26T14:52:32.828Z,7.77
2022-09-26T14:55:01.295Z,7.57
2022-09-26T14:57:31.857Z,7.87
2022-09-26T15:00:01.887Z,7.83
2022-09-26T15:02:39.145Z,7.83
2022-09-26T15:05:12.126Z,7.37
2022-09-26T15:08:00.341Z,8.40
2022-09-26T15:10:47.334Z,7.93
2022-09-26T15:13:22.935Z,7.83
2022-09-26T15:16:08.577Z,7.50
2022-09-26T15:18:45.515Z,8.30
2022-09-26T15:21:33.210Z,8.83
2022-09-26T15:24:03.297Z,8.47
2022-09-26T15:26:36.875Z,8.97
2022-09-26T15:29:06.369Z,8.77
2022-09-26T15:31:45.625Z,8.20
2022-09-26T15:34:21.739Z,7.93
2022-09-26T15:36:55.848Z,8.33
2022-09-26T15:39:33.993Z,8.57
2022-09-26T15:42:24.259Z,8.83
2022-09-26T15:45:00.703Z,9.90
2022-09-26T15:47:30.453Z,9.67
2022-09-26T15:50:23.395Z,9.97
2022-09-26T15:52:55.245Z,11.77
2022-09-26T15:55:28.747Z,10.30
2022-09-26T15:57:58.843Z,10.73
2022-09-26T16:00:25.693Z,10.53
2022-09-26T16:02:52.536Z,10.27
2022-09-26T16:05:19.349Z,10.53
2022-09-26T16:07:50.165Z,10.33
2022-09-26T16:10:24.131Z,10.20
2022-09-26T16:12:50.901Z,9.73
2022-09-26T16:15:19.321Z,10.63
2022-09-26T16:17:57.132Z,10.50
2022-09-26T16:20:28.076Z,10.27
2022-09-26T16:23:04.933Z,10.50
2022-09-26T16:25:34.445Z,10.33
2022-09-26T16:28:10.518Z,10.17
2022-09-26T16:30:45.733Z,10.17
2022-09-26T16:33:33.859Z,9.93
2022-09-26T16:36:25.269Z,10.00
2022-09-26T16:39:02.521Z,10.10
2022-09-26T16:44:35.709Z,10.70
2022-09-26T16:47:05.598Z,10.07
2022-09-26T16:49:46.502Z,10.17
2022-09-26T16:52:28.090Z,10.93
2022-09-26T16:55:00.954Z,10.60
2022-09-26T16:57:30.235Z,9.70
2022-09-26T17:00:37.617Z,10.73
2022-09-26T17:03:13.149Z,9.70
2022-09-26T17:05:41.515Z,10.67
2022-09-26T17:08:11.905Z,9.30
2022-09-26T17:10:38.911Z,31.27
2022-09-26T17:13:05.874Z,11.13
2022-09-26T17:15:34.516Z,9.87
2022-09-26T17:18:01.940Z,9.33
2022-09-26T17:20:31.138Z,9.33
2022-09-26T17:22:57.855Z,8.53
2022-09-26T17:25:25.294Z,9.80
2022-09-26T17:27:57.675Z,9.50
2022-09-26T17:30:29.263Z,9.33
2022-09-26T17:32:56.076Z,9.47
2022-09-26T17:35:26.290Z,8.40
2022-09-26T17:37:53.825Z,8.83
2022-09-26T17:40:24.173Z,8.07
2022-09-26T17:42:57.774Z,10.10
2022-09-26T17:45:32.396Z,8.20
2022-09-26T17:48:04.465Z,7.63
2022-09-26T17:50:34.140Z,7.97
2022-09-26T17:53:01.642Z,7.53
2022-09-26T17:55:29.094Z,7.70
2022-09-26T17:57:58.328Z,8.07
2022-09-26T18:00:25.329Z,7.57
2022-09-26T18:03:00.433Z,7.90
2022-09-26T18:05:30.579Z,7.83
2022-09-26T18:08:01.748Z,7.73
2022-09-26T18:10:33.870Z,8.20
2022-09-26T18:13:03.199Z,8.33
2022-09-26T18:15:30.042Z,8.47
2022-09-26T18:17:57.120Z,9.30
2022-09-26T18:20:33.159Z,9.17
2022-09-26T18:23:03.557Z,8.53
2022-09-26T18:25:32.516Z,8.40
2022-09-26T18:28:01.358Z,9.50
2022-09-26T18:30:30.305Z,8.50
2022-09-26T18:32:57.249Z,6.50
2022-09-26T18:35:27.787Z,6.27
2022-09-26T18:37:59.740Z,5.87
2022-09-26T18:40:27.904Z,5.93
2022-09-26T18:42:55.025Z,5.20
2022-09-26T18:45:30.499Z,4.30
2022-09-26T18:47:57.265Z,3.77
2022-09-26T18:50:30.923Z,4.07
2022-09-26T18:53:04.951Z,3.63
2022-09-26T18:55:50.101Z,3.33
2022-09-26T18:58:29.836Z,3.47
2022-09-26T19:01:08.719Z,3.80
2022-09-26T19:03:39.928Z,3.43
2022-09-26T19:06:19.583Z,3.90
2022-09-26T19:08:47.308Z,3.77
2022-09-26T19:11:18.277Z,3.10
2022-09-26T19:13:49.449Z,3.03
2022-09-26T19:16:20.892Z,2.83
2022-09-26T19:18:50.246Z,3.07
2022-09-26T19:21:38.476Z,2.87
2022-09-26T19:24:23.668Z,3.20
2022-09-26T19:26:59.380Z,14.13
2022-09-26T19:29:36.980Z,4.53
2022-09-26T19:32:03.748Z,3.80
2022-09-26T19:34:33.145Z,3.40
2022-09-26T19:37:01.501Z,4.23
2022-09-26T19:39:28.378Z,3.60
2022-09-26T19:41:57.368Z,5.27
2022-09-26T19:44:26.350Z,4.97
2022-09-26T19:46:59.811Z,5.00
2022-09-26T19:49:28.698Z,4.90
2022-09-26T19:51:55.611Z,5.60
2022-09-26T19:54:22.313Z,5.57
2022-09-26T19:56:51.538Z,6.37
2022-09-26T19:59:20.627Z,5.90
2022-09-26T20:01:50.037Z,11.80
2022-09-26T20:04:18.653Z,7.90
2022-09-26T20:06:48.058Z,6.57
2022-09-26T20:09:16.720Z,6.47
2022-09-26T20:11:43.465Z,7.23
2022-09-26T20:14:28.139Z,6.60
2022-09-26T20:17:04.634Z,6.90
2022-09-26T20:19:39.119Z,7.30
2022-09-26T20:22:14.049Z,8.40
2022-09-26T20:24:40.850Z,7.93
2022-09-26T20:27:08.076Z,7.77
2022-09-26T20:29:54.958Z,6.83
2022-09-26T20:32:26.625Z,7.47
2022-09-26T20:34:53.472Z,7.27
2022-09-26T20:37:23.524Z,7.23
2022-09-26T20:39:50.209Z,7.17
2022-09-26T20:42:17.740Z,7.07
2022-09-26T20:44:45.242Z,7.90
2022-09-26T20:47:14.687Z,7.27
2022-09-26T20:49:43.944Z,7.83
2022-09-26T20:52:24.588Z,6.97
2022-09-26T20:54:52.355Z,7.07
2022-09-26T20:57:19.840Z,7.33
2022-09-26T20:59:46.951Z,7.33
2022-09-26T21:02:52.678Z,6.63
2022-09-26T21:05:24.724Z,7.30
2022-09-26T21:07:54.785Z,7.10
2022-09-26T21:10:29.154Z,7.50
2022-09-26T21:13:01.287Z,7.03
2022-09-26T21:15:32.149Z,7.03
2022-09-26T21:17:58.940Z,7.73
2022-09-26T21:20:26.500Z,7.33
2022-09-26T21:22:56.316Z,7.50
2022-09-26T21:25:24.424Z,7.07
2022-09-26T21:27:53.873Z,7.87
2022-09-26T21:30:23.146Z,7.60
2022-09-26T21:32:55.024Z,7.70
2022-09-26T21:35:23.982Z,8.00
2022-09-26T21:37:53.993Z,8.20
2022-09-26T21:40:20.990Z,7.47
2022-09-26T21:42:49.565Z,7.30
2022-09-26T21:45:20.486Z,7.87
2022-09-26T21:47:49.953Z,8.00
2022-09-26T21:50:21.467Z,7.60
2022-09-26T21:52:55.045Z,8.13
2022-09-26T21:55:26.787Z,7.40
2022-09-26T21:57:56.092Z,8.13
2022-09-26T22:00:22.895Z,8.10
2022-09-26T22:02:57.274Z,7.83
2022-09-26T22:05:24.101Z,8.33
2022-09-26T22:07:51.275Z,7.90
2022-09-26T22:10:20.996Z,8.83
2022-09-26T22:12:50.079Z,8.97
2022-09-26T22:15:17.040Z,8.10
2022-09-26T22:44:57.061Z,8.40
2022-09-26T22:47:23.763Z,8.40
2022-09-26T22:49:50.466Z,8.37
2022-09-26T22:52:17.201Z,9.07
2022-09-26T22:54:46.117Z,8.70
2022-09-26T22:57:12.861Z,9.33
2022-09-26T22:59:39.658Z,9.60
2022-09-26T23:02:06.472Z,9.27
2022-09-26T23:04:48.614Z,9.80
2022-09-26T23:07:19.261Z,10.50
2022-09-26T23:09:46.019Z,10.90
2022-09-26T23:12:17.158Z,10.10
2022-09-26T23:14:43.919Z,10.00
2022-09-26T23:17:10.718Z,11.50
2022-09-26T23:19:40.149Z,11.37
2022-09-26T23:22:09.375Z,11.73
2022-09-26T23:24:38.568Z,12.37
2022-09-26T23:27:05.313Z,12.70
2022-09-26T23:29:32.470Z,12.10
2022-09-26T23:31:59.228Z,13.70
2022-09-26T23:34:25.983Z,13.87
2022-09-26T23:36:54.961Z,14.00
2022-09-26T23:39:21.679Z,14.10
2022-09-26T23:41:48.408Z,14.43
2022-09-26T23:44:15.107Z,15.30
2022-09-26T23:46:42.062Z,14.70
2022-09-26T23:49:08.861Z,15.47
2022-09-26T23:51:35.573Z,16.13
2022-09-26T23:54:04.598Z,16.60
2022-09-26T23:56:33.773Z,17.27
2022-09-26T23:59:00.485Z,17.20
